createdAt,value
2023-05-18T00:06:19.083Z,50.20
2023-05-18T00:07:18.971Z,50.16
2023-05-18T00:09:57.861Z,50.34
2023-05-18T00:10:59.014Z,50.22
2023-05-18T00:13:17.209Z,50.17
2023-05-18T00:14:16.988Z,50.32
2023-05-18T00:15:18.167Z,50.22
2023-05-18T00:27:00.745Z,50.22
2023-05-18T00:28:01.592Z,50.07
2023-05-18T00:40:31.945Z,50.09
2023-05-18T00:41:31.712Z,50.09
2023-05-18T00:48:06.746Z,50.07
2023-05-18T00:49:07.576Z,50.08
2023-05-18T00:50:07.774Z,50.12
2023-05-18T00:51:07.582Z,50.02
2023-05-18T00:52:07.607Z,49.95
2023-05-18T00:53:07.644Z,49.89
2023-05-18T00:54:06.685Z,50.02
2023-05-18T00:55:07.676Z,50.11
2023-05-18T01:08:19.557Z,49.84
2023-05-18T01:09:19.423Z,49.98
2023-05-18T01:10:19.643Z,49.92
2023-05-18T01:11:20.563Z,49.97
2023-05-18T01:12:20.555Z,49.83
2023-05-18T01:13:20.521Z,49.89
2023-05-18T01:14:20.542Z,50.01
2023-05-18T01:16:45.285Z,50.07
2023-05-18T01:17:45.446Z,50.01
2023-05-18T01:18:45.282Z,49.93
2023-05-18T01:24:40.147Z,49.92
2023-05-18T01:33:31.549Z,49.84
2023-05-18T01:34:31.403Z,49.91
2023-05-18T01:35:32.743Z,49.70
2023-05-18T01:36:32.483Z,49.72
2023-05-18T01:37:31.431Z,49.85
2023-05-18T01:40:56.790Z,49.86
2023-05-18T01:41:56.790Z,49.71
2023-05-18T01:42:57.588Z,49.80
2023-05-18T01:43:57.590Z,49.72
2023-05-18T01:44:57.617Z,49.73
2023-05-18T01:51:13.878Z,49.86
2023-05-18T01:52:13.728Z,49.81
2023-05-18T01:53:13.862Z,49.61
2023-05-18T01:54:14.697Z,49.64
2023-05-18T01:55:13.747Z,49.66
2023-05-18T01:56:14.831Z,49.62
2023-05-18T01:58:33.254Z,49.67
2023-05-18T02:08:12.061Z,49.69
2023-05-18T02:09:11.932Z,49.75
2023-05-18T02:10:13.128Z,49.56
2023-05-18T02:11:11.965Z,49.77
2023-05-18T02:12:12.973Z,49.62
2023-05-18T02:13:12.991Z,49.64
2023-05-18T02:14:13.025Z,49.73
2023-05-18T02:15:13.085Z,49.50
2023-05-18T02:16:12.207Z,49.60
2023-05-18T02:18:51.050Z,49.64
2023-05-18T02:19:51.923Z,49.55
2023-05-18T02:20:52.102Z,49.51
2023-05-18T02:21:51.956Z,49.58
2023-05-18T02:22:52.027Z,49.57
2023-05-18T02:23:52.061Z,49.55
2023-05-18T02:24:52.057Z,49.66
2023-05-18T02:25:52.072Z,49.70
2023-05-18T02:36:41.313Z,49.53
2023-05-18T02:37:42.244Z,49.63
2023-05-18T02:38:42.405Z,49.57
2023-05-18T02:39:42.239Z,49.47
2023-05-18T02:40:41.196Z,49.52
2023-05-18T02:41:41.278Z,49.46
2023-05-18T02:42:42.345Z,49.49
2023-05-18T02:43:41.335Z,49.46
2023-05-18T02:44:41.358Z,49.68
2023-05-18T02:47:12.895Z,49.65
2023-05-18T02:48:13.775Z,49.67
2023-05-18T02:49:13.916Z,49.50
2023-05-18T02:50:13.789Z,49.52
2023-05-18T02:53:31.864Z,49.67
2023-05-18T02:54:32.702Z,49.60
2023-05-18T02:55:32.943Z,49.55
2023-05-18T02:56:31.697Z,49.39
2023-05-18T02:57:31.742Z,49.57
2023-05-18T02:58:32.778Z,49.38
2023-05-18T02:59:32.814Z,49.38
2023-05-18T03:00:32.827Z,49.36
2023-05-18T03:01:32.984Z,49.42
2023-05-18T03:02:31.943Z,49.46
2023-05-18T03:03:32.863Z,49.34
2023-05-18T03:04:31.840Z,49.49
2023-05-18T03:05:32.825Z,49.53
2023-05-18T03:06:32.857Z,49.58
2023-05-18T03:07:32.825Z,49.61
2023-05-18T03:08:32.868Z,49.49
2023-05-18T03:09:32.869Z,49.43
2023-05-18T03:10:31.810Z,49.46
2023-05-18T03:11:32.822Z,49.43
2023-05-18T03:12:32.847Z,49.37
2023-05-18T03:18:01.507Z,49.35
2023-05-18T03:19:02.396Z,49.46
2023-05-18T03:21:44.731Z,49.52
2023-05-18T03:37:13.975Z,49.30
2023-05-18T03:38:14.948Z,49.48
2023-05-18T03:39:15.038Z,49.36
2023-05-18T03:40:14.848Z,49.43
2023-05-18T03:41:13.853Z,49.42
2023-05-18T03:42:13.935Z,49.39
2023-05-18T03:43:14.971Z,49.41
2023-05-18T03:44:15.042Z,49.41
2023-05-18T03:45:14.017Z,49.34
2023-05-18T03:48:33.016Z,49.33
2023-05-18T03:51:16.300Z,49.41
2023-05-18T03:52:17.179Z,49.35
2023-05-18T03:53:16.347Z,49.35
2023-05-18T03:54:17.199Z,49.27
2023-05-18T03:55:17.171Z,49.24
2023-05-18T03:56:16.249Z,49.27
2023-05-18T03:57:16.266Z,49.38
2023-05-18T03:59:37.051Z,49.50
2023-05-18T04:01:56.160Z,49.48
2023-05-18T04:02:55.925Z,49.49
2023-05-18T04:03:57.208Z,49.33
2023-05-18T04:04:56.829Z,49.20
2023-05-18T04:05:56.807Z,49.27
2023-05-18T04:08:27.330Z,49.42
2023-05-18T04:09:27.211Z,49.34
2023-05-18T04:15:50.211Z,49.29
2023-05-18T04:16:50.420Z,49.16
2023-05-18T04:20:21.072Z,49.23
2023-05-18T04:21:21.916Z,49.05
2023-05-18T04:22:22.106Z,49.09
2023-05-18T04:23:20.905Z,49.12
2023-05-18T04:24:20.938Z,49.11
2023-05-18T04:26:40.634Z,49.28
2023-05-18T04:27:40.931Z,49.18
2023-05-18T04:28:41.513Z,49.15
2023-05-18T04:29:41.511Z,49.11
2023-05-18T04:30:40.581Z,49.07
2023-05-18T04:35:00.054Z,49.19
2023-05-18T04:36:00.876Z,49.20
2023-05-18T04:38:19.235Z,49.26
2023-05-18T04:46:58.766Z,49.06
2023-05-18T04:47:58.778Z,49.05
2023-05-18T04:48:58.883Z,49.03
2023-05-18T04:49:58.656Z,48.94
2023-05-18T04:50:59.692Z,48.94
2023-05-18T04:51:59.782Z,48.90
2023-05-18T04:52:59.741Z,48.98
2023-05-18T04:53:58.785Z,48.87
2023-05-18T05:05:36.666Z,48.86
2023-05-18T05:07:55.840Z,48.87
2023-05-18T05:08:56.835Z,48.84
2023-05-18T05:09:56.620Z,48.75
2023-05-18T05:10:56.614Z,48.87
2023-05-18T05:21:17.223Z,48.57
2023-05-18T05:22:18.091Z,48.60
2023-05-18T05:23:18.290Z,48.60
2023-05-18T05:29:58.151Z,48.55
2023-05-18T05:30:58.922Z,48.54
2023-05-18T05:33:17.135Z,48.55
2023-05-18T05:34:18.311Z,48.61
2023-05-18T05:35:18.018Z,48.57
2023-05-18T05:36:18.061Z,48.80
2023-05-18T05:37:17.043Z,48.66
2023-05-18T05:38:18.017Z,48.57
2023-05-18T05:39:17.010Z,48.49
2023-05-18T05:40:18.008Z,48.51
2023-05-18T05:41:16.992Z,48.53
2023-05-18T05:42:17.984Z,48.46
2023-05-18T05:43:17.980Z,48.46
2023-05-18T05:44:16.991Z,48.46
2023-05-18T05:45:17.951Z,48.49
2023-05-18T05:46:16.981Z,48.45
2023-05-18T05:47:17.937Z,48.43
2023-05-18T05:48:17.982Z,48.45
2023-05-18T05:51:59.768Z,48.42
2023-05-18T05:52:59.585Z,48.34
2023-05-18T05:54:00.787Z,48.33
2023-05-18T05:55:00.586Z,48.33
2023-05-18T05:56:00.607Z,48.36
2023-05-18T05:57:00.670Z,48.37
2023-05-18T05:58:00.736Z,48.30
2023-05-18T06:00:19.053Z,48.37
2023-05-18T06:01:18.886Z,48.41
2023-05-18T06:02:19.045Z,48.31
2023-05-18T06:03:19.895Z,48.32
2023-05-18T06:07:13.471Z,48.33
2023-05-18T06:08:14.320Z,48.33
2023-05-18T06:09:13.525Z,48.36
2023-05-18T06:12:08.647Z,48.24
2023-05-18T06:13:08.540Z,48.29
2023-05-18T06:14:09.715Z,48.29
2023-05-18T06:25:12.215Z,47.98
2023-05-18T06:26:13.081Z,48.03
2023-05-18T06:27:13.242Z,48.04
2023-05-18T06:28:12.095Z,48.06
2023-05-18T06:29:13.066Z,48.08
2023-05-18T06:34:54.979Z,47.97
2023-05-18T06:35:55.968Z,47.99
2023-05-18T06:36:54.807Z,47.87
2023-05-18T06:37:55.809Z,47.88
2023-05-18T06:38:54.835Z,47.88
2023-05-18T06:39:54.882Z,47.75
2023-05-18T06:40:55.929Z,47.80
2023-05-18T06:41:54.923Z,47.73
2023-05-18T06:42:55.923Z,47.76
2023-05-18T06:43:55.941Z,47.71
2023-05-18T06:47:37.741Z,47.54
2023-05-18T06:49:56.912Z,47.63
2023-05-18T06:54:44.796Z,47.40
2023-05-18T06:55:45.649Z,47.38
2023-05-18T06:56:45.838Z,47.33
2023-05-18T06:57:44.644Z,47.31
2023-05-18T06:58:45.683Z,47.33
2023-05-18T07:01:17.642Z,47.37
2023-05-18T07:02:18.740Z,47.29
2023-05-18T07:03:18.701Z,47.21
2023-05-18T07:10:46.072Z,47.08
2023-05-18T07:11:46.960Z,47.10
2023-05-18T07:12:47.111Z,47.02
2023-05-18T07:18:10.728Z,47.22
2023-05-18T07:19:11.580Z,47.29
2023-05-18T07:20:10.730Z,47.26
2023-05-18T07:23:05.795Z,47.28
2023-05-18T07:24:06.721Z,47.29
2023-05-18T07:25:06.832Z,47.25
2023-05-18T07:27:50.367Z,47.36
2023-05-18T07:37:24.905Z,47.25
2023-05-18T07:38:25.764Z,47.25
2023-05-18T07:39:25.997Z,47.25
2023-05-18T07:40:25.781Z,47.26
2023-05-18T07:41:25.798Z,47.21
2023-05-18T07:42:24.881Z,47.25
2023-05-18T07:44:44.277Z,47.32
2023-05-18T07:45:44.276Z,47.24
2023-05-18T07:46:44.123Z,47.24
2023-05-18T07:47:45.023Z,47.22
2023-05-18T07:48:44.984Z,47.23
2023-05-18T07:49:45.137Z,47.22
2023-05-18T07:50:43.957Z,47.19
2023-05-18T07:51:43.981Z,47.19
2023-05-18T07:58:25.965Z,47.27
2023-05-18T07:59:26.913Z,47.21
2023-05-18T08:00:25.897Z,47.16
2023-05-18T08:01:25.881Z,47.19
2023-05-18T08:12:23.827Z,46.97
2023-05-18T08:13:23.850Z,47.01
2023-05-18T08:20:17.841Z,47.01
2023-05-18T08:21:18.994Z,47.04
2023-05-18T08:22:18.851Z,47.00
2023-05-18T08:23:18.002Z,47.01
2023-05-18T08:31:41.232Z,46.85
2023-05-18T08:32:42.305Z,46.89
2023-05-18T08:33:41.014Z,46.89
2023-05-18T08:34:42.025Z,46.85
2023-05-18T08:44:09.281Z,46.80
2023-05-18T08:45:10.206Z,46.88
2023-05-18T08:47:28.352Z,46.94
2023-05-18T08:48:28.606Z,46.91
2023-05-18T08:49:29.252Z,46.92
2023-05-18T08:51:47.613Z,46.92
2023-05-18T08:52:48.405Z,46.89
2023-05-18T09:14:13.395Z,46.94
2023-05-18T09:33:00.712Z,47.07
2023-05-18T09:34:00.491Z,46.98
2023-05-18T09:35:00.730Z,47.02
2023-05-18T09:36:00.636Z,47.03
2023-05-18T09:37:00.467Z,46.96
2023-05-18T09:38:00.723Z,46.99
2023-05-18T09:43:00.617Z,47.07
2023-05-18T09:44:00.465Z,46.99
2023-05-18T09:45:00.668Z,46.98
2023-05-18T09:46:01.484Z,47.05
2023-05-18T09:47:01.550Z,47.06
2023-05-18T09:48:00.719Z,47.10
2023-05-18T09:49:01.832Z,47.00
2023-05-18T09:50:01.676Z,47.01
2023-05-18T09:54:48.921Z,47.02
2023-05-18T09:55:48.847Z,47.01
2023-05-18T09:57:02.092Z,47.01
2023-05-18T09:57:49.632Z,46.91
2023-05-18T09:58:49.708Z,46.90
2023-05-18T09:59:49.660Z,46.92
2023-05-18T10:00:48.717Z,46.93
2023-05-18T10:01:49.744Z,46.88
2023-05-18T10:02:49.625Z,47.06
2023-05-18T10:06:25.548Z,46.84
2023-05-18T10:07:25.445Z,46.87
2023-05-18T10:09:44.682Z,46.90
2023-05-18T10:10:45.572Z,46.89
2023-05-18T10:11:45.630Z,46.89
2023-05-18T10:20:26.567Z,47.11
2023-05-18T10:35:38.065Z,46.76
2023-05-18T10:36:38.857Z,46.82
2023-05-18T10:37:39.083Z,46.72
2023-05-18T10:38:38.894Z,46.67
2023-05-18T10:39:37.891Z,46.64
2023-05-18T10:40:38.995Z,46.73
2023-05-18T10:41:37.965Z,46.76
2023-05-18T10:42:39.005Z,46.83
2023-05-18T10:43:39.186Z,46.91
2023-05-18T10:44:38.054Z,47.02
2023-05-18T10:45:39.005Z,46.77
2023-05-18T10:46:39.077Z,46.77
2023-05-18T10:47:39.458Z,46.78
2023-05-18T10:48:38.117Z,46.73
2023-05-18T10:57:29.592Z,46.74
2023-05-18T10:58:30.441Z,46.79
2023-05-18T10:59:30.696Z,46.72
2023-05-18T11:00:29.660Z,46.72
2023-05-18T11:01:30.518Z,46.68
2023-05-18T11:02:30.624Z,46.62
2023-05-18T11:03:29.536Z,46.74
2023-05-18T11:04:29.619Z,46.72
2023-05-18T11:11:04.590Z,46.58
2023-05-18T11:12:04.446Z,46.65
2023-05-18T11:13:04.621Z,46.63
2023-05-18T11:14:05.460Z,46.57
2023-05-18T11:16:23.872Z,46.62
2023-05-18T11:22:17.109Z,46.65
2023-05-18T11:23:17.954Z,46.77
2023-05-18T11:24:17.113Z,46.64
2023-05-18T11:29:30.268Z,46.53
2023-05-18T11:30:30.322Z,46.67
2023-05-18T11:31:31.257Z,46.63
2023-05-18T11:32:31.039Z,46.47
2023-05-18T11:33:31.202Z,46.49
2023-05-18T11:34:30.389Z,46.68
2023-05-18T11:35:30.257Z,46.56
2023-05-18T11:36:31.174Z,46.49
2023-05-18T11:41:01.941Z,46.52
2023-05-18T11:42:02.778Z,46.62
2023-05-18T11:43:02.923Z,46.67
2023-05-18T11:44:02.810Z,46.49
2023-05-18T11:45:02.885Z,46.47
2023-05-18T11:46:02.842Z,46.58
2023-05-18T11:47:02.845Z,46.49
2023-05-18T11:48:02.906Z,46.47
2023-05-18T11:49:02.891Z,46.52
2023-05-18T11:50:01.855Z,46.40
2023-05-18T11:53:22.279Z,46.38
2023-05-18T11:54:22.497Z,46.38
2023-05-18T11:55:23.299Z,46.51
2023-05-18T11:56:23.303Z,46.46
2023-05-18T11:57:23.332Z,46.43
2023-05-18T11:58:22.336Z,46.36
2023-05-18T11:59:22.324Z,46.37
2023-05-18T12:00:23.391Z,46.31
2023-05-18T12:01:22.370Z,46.24
2023-05-18T12:02:22.469Z,46.15
2023-05-18T12:03:23.462Z,46.13
2023-05-18T12:04:23.522Z,46.25
2023-05-18T12:05:22.457Z,46.12
2023-05-18T12:06:23.465Z,46.17
2023-05-18T12:07:23.507Z,46.24
2023-05-18T12:08:22.559Z,46.23
2023-05-18T12:09:23.575Z,46.20
2023-05-18T12:10:23.656Z,46.17
2023-05-18T12:11:23.676Z,46.18
2023-05-18T12:12:23.709Z,46.16
2023-05-18T12:13:23.803Z,46.18
2023-05-18T12:14:22.788Z,46.14
2023-05-18T12:15:23.850Z,46.18
2023-05-18T12:16:23.049Z,46.16
2023-05-18T12:17:23.981Z,46.17
2023-05-18T12:18:22.964Z,46.12
2023-05-18T12:19:24.058Z,46.19
2023-05-18T12:20:23.205Z,46.20
2023-05-18T12:21:24.129Z,46.08
2023-05-18T12:22:23.169Z,46.08
2023-05-18T12:23:24.256Z,46.09
2023-05-18T12:24:23.443Z,46.00
2023-05-18T12:25:23.351Z,46.01
2023-05-18T12:26:23.303Z,46.07
2023-05-18T12:27:24.394Z,46.00
2023-05-18T12:28:24.410Z,45.97
2023-05-18T12:29:24.481Z,45.96
2023-05-18T12:30:23.620Z,46.03
2023-05-18T12:31:23.676Z,45.99
2023-05-18T12:32:23.721Z,45.92
2023-05-18T12:33:24.667Z,46.03
2023-05-18T12:34:24.709Z,45.96
2023-05-18T12:35:24.777Z,45.93
2023-05-18T12:36:24.811Z,45.98
2023-05-18T12:37:33.722Z,45.92
2023-05-18T12:38:24.874Z,45.89
2023-05-18T12:39:26.522Z,45.96
2023-05-18T12:40:24.848Z,45.89
2023-05-18T12:41:23.864Z,45.91
2023-05-18T12:42:24.816Z,45.89
2023-05-18T12:43:23.810Z,45.87
2023-05-18T12:44:24.805Z,45.81
2023-05-18T12:45:24.844Z,45.90
2023-05-18T12:46:24.966Z,45.86
2023-05-18T12:47:24.825Z,45.86
2023-05-18T12:48:23.927Z,45.86
2023-05-18T12:49:24.757Z,45.80
2023-05-18T12:50:23.788Z,45.84
2023-05-18T12:51:24.778Z,45.82
2023-05-18T12:52:23.856Z,45.84
2023-05-18T12:53:24.928Z,45.87
2023-05-18T12:54:23.957Z,45.77
2023-05-18T12:55:23.992Z,45.86
2023-05-18T12:56:24.058Z,45.81
2023-05-18T12:57:25.111Z,45.84
2023-05-18T12:58:25.180Z,45.90
2023-05-18T12:59:25.249Z,45.78
2023-05-18T13:00:24.303Z,45.87
2023-05-18T13:01:25.394Z,45.80
2023-05-18T13:02:24.505Z,45.85
2023-05-18T13:03:24.665Z,45.84
2023-05-18T13:04:25.563Z,45.79
2023-05-18T13:05:25.617Z,45.81
2023-05-18T13:06:24.662Z,45.84
2023-05-18T13:07:24.704Z,45.83
2023-05-18T13:08:24.775Z,45.81
2023-05-18T13:09:25.827Z,45.77
2023-05-18T13:10:25.926Z,45.81
2023-05-18T13:11:24.949Z,45.78
2023-05-18T13:12:24.951Z,45.79
2023-05-18T13:13:25.024Z,45.82
2023-05-18T13:14:25.142Z,45.73
2023-05-18T13:15:25.145Z,45.81
2023-05-18T13:16:25.251Z,45.81
2023-05-18T13:17:26.302Z,45.71
2023-05-18T13:18:25.289Z,45.75
2023-05-18T13:19:25.464Z,45.79
2023-05-18T13:20:25.435Z,45.82
2023-05-18T13:21:25.428Z,45.75
2023-05-18T13:22:25.598Z,45.80
2023-05-18T13:23:25.558Z,45.80
2023-05-18T13:24:25.715Z,45.79
2023-05-18T13:25:25.819Z,45.73
2023-05-18T13:26:26.850Z,45.81
2023-05-18T13:27:25.834Z,45.72
2023-05-18T14:07:50.269Z,45.68
2023-05-18T14:10:11.327Z,45.84
2023-05-18T14:11:12.100Z,45.69
2023-05-18T14:13:54.727Z,45.81
2023-05-18T14:14:54.732Z,45.78
2023-05-18T14:15:55.548Z,45.76
2023-05-18T14:20:19.952Z,45.80
2023-05-18T14:21:20.843Z,45.76
2023-05-18T14:22:19.960Z,45.67
2023-05-18T14:23:19.905Z,45.66
2023-05-18T14:24:19.846Z,45.72
2023-05-18T14:25:19.867Z,45.64
2023-05-18T14:26:19.847Z,45.70
2023-05-18T14:29:03.206Z,45.72
2023-05-18T14:30:04.127Z,45.78
2023-05-18T14:37:19.658Z,45.71
2023-05-18T14:38:19.573Z,45.69
2023-05-18T14:41:26.643Z,45.65
2023-05-18T14:47:02.502Z,45.68
2023-05-18T14:48:02.384Z,45.65
2023-05-18T14:49:02.241Z,45.66
2023-05-18T14:50:02.303Z,45.62
2023-05-18T14:51:03.285Z,45.59
2023-05-18T14:52:02.180Z,45.50
2023-05-18T14:53:03.226Z,45.69
2023-05-18T14:54:02.214Z,45.54
2023-05-18T14:55:03.219Z,45.57
2023-05-18T14:56:03.346Z,45.56
2023-05-18T15:03:13.159Z,45.72
2023-05-18T15:04:13.011Z,45.66
2023-05-18T15:05:12.981Z,45.65
2023-05-18T15:06:14.019Z,45.65
2023-05-18T15:07:13.854Z,45.68
2023-05-18T15:08:14.002Z,45.67
2023-05-18T15:14:59.826Z,45.72
2023-05-18T15:16:00.984Z,45.67
2023-05-18T15:17:00.023Z,45.76
2023-05-18T15:17:59.792Z,45.66
2023-05-18T15:19:00.831Z,45.73
2023-05-18T15:19:59.844Z,45.72
2023-05-18T15:20:59.938Z,45.67
2023-05-18T15:22:00.920Z,45.81
2023-05-18T15:22:59.803Z,45.72
2023-05-18T15:25:37.229Z,45.90
2023-05-18T15:26:38.133Z,45.86
2023-05-18T15:27:38.314Z,45.83
2023-05-18T15:28:37.173Z,45.92
2023-05-18T15:29:38.152Z,45.90
2023-05-18T15:30:37.149Z,45.86
2023-05-18T15:33:33.899Z,46.06
2023-05-18T15:34:33.918Z,45.94
2023-05-18T15:35:34.901Z,45.97
2023-05-18T15:36:34.843Z,46.01
2023-05-18T15:37:33.947Z,46.00
2023-05-18T15:38:34.976Z,45.99
2023-05-18T15:39:34.734Z,46.03
2023-05-18T15:40:34.912Z,45.88
2023-05-18T15:44:40.434Z,46.04
2023-05-18T15:46:59.803Z,46.23
2023-05-18T15:48:00.574Z,46.03
2023-05-18T15:49:00.776Z,46.05
2023-05-18T15:54:23.392Z,46.03
2023-05-18T15:58:11.961Z,46.01
2023-05-18T15:59:11.752Z,46.02
2023-05-18T16:00:11.921Z,46.08
2023-05-18T16:01:12.944Z,46.06
2023-05-18T16:02:12.902Z,45.99
2023-05-18T16:03:11.951Z,45.98
2023-05-18T16:04:12.971Z,46.05
2023-05-18T16:05:11.976Z,46.10
2023-05-18T16:06:11.908Z,46.03
2023-05-18T16:07:12.969Z,46.12
2023-05-18T16:08:13.046Z,45.96
2023-05-18T16:09:11.953Z,46.01
2023-05-18T16:10:13.127Z,45.92
2023-05-18T16:11:12.206Z,46.19
2023-05-18T16:12:12.019Z,46.17
2023-05-18T16:13:13.156Z,46.19
2023-05-18T16:14:11.965Z,46.07
2023-05-18T16:15:13.261Z,46.10
2023-05-18T16:16:12.288Z,46.18
2023-05-18T16:17:12.119Z,46.17
2023-05-18T16:18:12.134Z,46.21
2023-05-18T16:19:13.197Z,46.17
2023-05-18T16:22:13.631Z,45.97
2023-05-18T16:23:14.664Z,46.09
2023-05-18T16:24:13.611Z,46.18
2023-05-18T16:25:13.566Z,46.07
2023-05-18T16:26:14.835Z,46.04
2023-05-18T16:27:13.699Z,46.18
2023-05-18T16:28:14.707Z,46.06
2023-05-18T16:29:13.524Z,46.08
2023-05-18T16:30:14.753Z,46.10
2023-05-18T16:31:14.535Z,46.06
2023-05-18T16:44:38.364Z,46.19
2023-05-18T16:45:38.283Z,46.19
2023-05-18T16:46:38.524Z,46.31
2023-05-18T16:47:39.182Z,46.24
2023-05-18T16:48:39.227Z,46.23
2023-05-18T16:49:38.237Z,46.35
2023-05-18T16:50:38.255Z,46.36
2023-05-18T16:51:39.295Z,46.35
2023-05-18T16:52:38.331Z,46.32
2023-05-18T16:53:39.345Z,46.40
2023-05-18T16:54:39.294Z,46.38
2023-05-18T16:55:38.551Z,46.42
2023-05-18T16:56:38.376Z,46.40
2023-05-18T16:57:38.366Z,46.37
2023-05-18T17:04:37.096Z,46.45
2023-05-18T17:05:37.280Z,46.40
2023-05-18T17:06:38.062Z,46.51
2023-05-18T17:07:37.044Z,46.53
2023-05-18T17:08:38.178Z,46.51
2023-05-18T17:09:38.373Z,46.51
2023-05-18T17:10:38.165Z,46.51
2023-05-18T17:14:08.104Z,46.55
2023-05-18T17:15:07.874Z,46.52
2023-05-18T17:16:08.174Z,46.60
2023-05-18T17:17:09.025Z,46.50
2023-05-18T17:18:07.977Z,46.51
2023-05-18T17:20:27.175Z,46.60
2023-05-18T17:21:27.359Z,46.52
2023-05-18T17:24:34.548Z,46.64
2023-05-18T17:25:35.405Z,46.56
2023-05-18T17:26:35.370Z,46.54
2023-05-18T17:27:35.258Z,46.46
2023-05-18T17:28:35.446Z,46.48
2023-05-18T17:29:35.326Z,46.63
2023-05-18T17:30:35.316Z,46.53
2023-05-18T17:31:35.640Z,46.52
2023-05-18T17:32:34.446Z,46.51
2023-05-18T17:33:34.556Z,46.50
2023-05-18T17:34:35.482Z,46.50
2023-05-18T17:35:34.497Z,46.46
2023-05-18T17:36:34.352Z,46.48
2023-05-18T17:37:34.396Z,46.46
2023-05-18T17:38:35.398Z,46.59
2023-05-18T17:39:35.375Z,46.45
2023-05-18T17:40:34.598Z,46.47
2023-05-18T17:44:11.482Z,46.53
2023-05-18T17:45:11.397Z,46.54
2023-05-18T17:56:00.774Z,46.46
2023-05-18T17:57:00.512Z,46.48
2023-05-18T17:58:01.879Z,46.47
2023-05-18T17:59:00.502Z,46.49
2023-05-18T18:01:33.802Z,46.56
2023-05-18T18:02:33.580Z,46.50
2023-05-18T18:03:34.846Z,46.46
2023-05-18T18:04:33.511Z,46.45
2023-05-18T18:15:47.784Z,46.36
2023-05-18T18:16:48.532Z,46.45
2023-05-18T18:17:48.718Z,46.48
2023-05-18T18:20:06.838Z,46.53
2023-05-18T18:21:06.871Z,46.51
2023-05-18T18:25:07.452Z,46.53
2023-05-18T18:26:07.697Z,46.51
2023-05-18T18:27:08.354Z,46.52
2023-05-18T18:37:11.601Z,46.54
2023-05-18T18:38:11.434Z,46.48
2023-05-18T18:39:12.647Z,46.50
2023-05-18T18:41:30.664Z,46.61
2023-05-18T18:42:30.809Z,46.62
2023-05-18T18:43:30.724Z,46.57
2023-05-18T18:54:15.110Z,46.53
2023-05-18T18:55:14.975Z,46.49
2023-05-18T18:56:15.168Z,46.53
2023-05-18T18:57:15.872Z,46.49
2023-05-18T18:59:40.567Z,46.56
2023-05-18T19:00:41.449Z,46.56
2023-05-18T19:05:58.269Z,46.58
2023-05-18T19:06:59.291Z,46.59
2023-05-18T19:07:59.330Z,46.59
2023-05-18T19:08:58.129Z,46.64
2023-05-18T19:11:17.447Z,46.62
2023-05-18T19:12:17.435Z,46.65
2023-05-18T19:21:38.643Z,46.58
2023-05-18T19:22:38.461Z,46.62
2023-05-18T19:31:00.502Z,46.65
2023-05-18T19:33:19.630Z,46.69
2023-05-18T19:34:19.499Z,46.68
2023-05-18T19:35:20.440Z,46.67
2023-05-18T19:43:35.592Z,46.70
2023-05-18T19:44:36.637Z,46.71
2023-05-18T19:45:36.802Z,46.72
2023-05-18T19:46:35.642Z,46.73
2023-05-18T19:48:56.486Z,46.79
2023-05-18T19:52:43.516Z,46.80
2023-05-18T19:53:43.418Z,46.68
2023-05-18T19:54:44.546Z,46.71
2023-05-18T19:55:43.493Z,46.75
2023-05-18T19:58:02.846Z,46.78
2023-05-18T19:59:02.797Z,46.78
2023-05-18T20:00:03.478Z,46.80
2023-05-18T20:05:08.671Z,46.80
2023-05-18T20:11:43.644Z,46.76
2023-05-18T20:12:43.524Z,46.75
2023-05-18T20:21:11.412Z,46.74
2023-05-18T20:22:11.311Z,46.73
2023-05-18T20:23:12.452Z,46.75
2023-05-18T20:24:12.251Z,46.78
2023-05-18T20:25:12.282Z,46.77
2023-05-18T20:26:12.294Z,46.78
2023-05-18T20:27:12.352Z,46.78
2023-05-18T20:28:12.347Z,46.74
2023-05-18T20:29:12.414Z,46.75
2023-05-18T20:30:12.416Z,46.75
2023-05-18T20:31:11.378Z,46.75
2023-05-18T20:32:11.377Z,46.74
2023-05-18T20:33:12.554Z,46.76
2023-05-18T20:34:11.402Z,46.77
2023-05-18T20:37:54.523Z,46.77
2023-05-18T20:38:54.471Z,46.81
2023-05-18T20:39:54.441Z,46.78
2023-05-18T20:40:55.504Z,46.76
2023-05-18T20:41:54.332Z,46.92
2023-05-18T20:42:55.399Z,46.85
2023-05-18T20:43:55.360Z,46.78
2023-05-18T20:44:55.437Z,46.80
2023-05-18T20:45:54.402Z,46.87
2023-05-18T20:46:54.422Z,46.78
2023-05-18T20:47:55.642Z,46.77
2023-05-18T20:48:55.605Z,46.82
2023-05-18T20:52:13.689Z,46.87
2023-05-18T20:53:13.624Z,46.87
2023-05-18T20:54:13.659Z,46.86
2023-05-18T20:55:14.638Z,46.85
2023-05-18T20:56:14.492Z,46.87
2023-05-18T20:57:13.551Z,46.84
2023-05-18T20:58:13.677Z,46.86
2023-05-18T20:59:14.611Z,46.89
2023-05-18T21:00:13.659Z,46.92
2023-05-18T21:01:13.697Z,46.93
2023-05-18T21:02:13.545Z,46.89
2023-05-18T21:04:33.002Z,46.93
2023-05-18T21:05:32.877Z,46.91
2023-05-18T21:14:42.089Z,46.84
2023-05-18T21:15:42.003Z,46.87
2023-05-18T21:25:32.930Z,46.86
2023-05-18T21:26:32.808Z,46.86
2023-05-18T21:27:33.008Z,46.86
2023-05-18T21:29:52.120Z,47.00
2023-05-18T21:30:52.253Z,46.98
2023-05-18T21:31:52.137Z,46.97
2023-05-18T21:32:53.045Z,46.96
2023-05-18T21:33:51.934Z,46.95
2023-05-18T21:34:52.917Z,46.99
2023-05-18T21:35:53.014Z,46.97
2023-05-18T21:39:41.644Z,46.97
2023-05-18T21:40:43.378Z,46.96
2023-05-18T21:41:41.745Z,46.96
2023-05-18T21:42:42.624Z,46.98
2023-05-18T21:43:41.785Z,46.98
2023-05-18T21:44:41.745Z,46.98
2023-05-18T21:45:42.776Z,46.92
2023-05-18T21:48:54.880Z,47.03
2023-05-18T21:52:13.828Z,47.11
2023-05-18T21:53:13.875Z,47.05
2023-05-18T21:54:14.881Z,47.10
2023-05-18T21:56:33.024Z,47.14
2023-05-18T21:57:33.957Z,47.18
2023-05-18T21:58:32.798Z,47.15
2023-05-18T21:59:33.743Z,47.20
2023-05-18T22:00:33.067Z,47.12
2023-05-18T22:04:52.782Z,47.03
2023-05-18T22:05:53.870Z,47.04
2023-05-18T22:08:48.015Z,47.04
2023-05-18T22:09:48.025Z,47.05
2023-05-18T22:10:48.073Z,47.10
2023-05-18T22:11:47.859Z,47.13
2023-05-18T22:12:48.940Z,47.05
2023-05-18T22:13:47.963Z,47.04
2023-05-18T22:14:48.046Z,47.00
2023-05-18T22:15:49.084Z,47.00
2023-05-18T22:16:49.300Z,47.06
2023-05-18T22:17:48.033Z,47.08
2023-05-18T22:18:49.125Z,47.12
2023-05-18T22:19:49.016Z,47.15
2023-05-18T22:20:49.035Z,47.06
2023-05-18T22:25:30.249Z,47.05
2023-05-18T22:26:31.127Z,47.01
2023-05-18T22:27:30.217Z,47.04
2023-05-18T22:28:30.041Z,47.03
2023-05-18T22:29:31.198Z,47.02
2023-05-18T22:30:30.268Z,47.05
2023-05-18T22:31:31.190Z,47.00
2023-05-18T22:32:31.304Z,47.02
2023-05-18T22:33:30.188Z,46.98
2023-05-18T22:36:25.556Z,47.10
2023-05-18T22:37:26.377Z,47.09
2023-05-18T22:38:25.573Z,47.08
2023-05-18T22:39:25.372Z,47.09
2023-05-18T22:43:15.720Z,47.11
2023-05-18T22:44:16.617Z,47.10
2023-05-18T22:53:13.338Z,47.18
2023-05-18T22:54:14.286Z,47.18
2023-05-18T22:56:32.464Z,47.22
2023-05-18T22:57:33.441Z,47.13
2023-05-18T23:02:20.392Z,47.16
2023-05-18T23:04:39.706Z,47.24
2023-05-18T23:08:05.639Z,47.20
2023-05-18T23:09:05.529Z,47.31
2023-05-18T23:10:05.362Z,47.26
2023-05-18T23:12:24.612Z,47.20
2023-05-18T23:13:24.715Z,47.20
2023-05-18T23:14:25.617Z,47.19
2023-05-18T23:15:24.490Z,47.20
2023-05-18T23:16:24.577Z,47.17
2023-05-18T23:17:25.639Z,47.11
2023-05-18T23:19:56.009Z,47.13
2023-05-18T23:20:55.976Z,47.11
2023-05-18T23:21:56.109Z,47.12
2023-05-18T23:22:56.840Z,47.18
2023-05-18T23:23:55.963Z,47.16
2023-05-18T23:24:57.161Z,47.16
2023-05-18T23:35:13.231Z,47.23
2023-05-18T23:36:10.520Z,47.18
2023-05-18T23:37:11.841Z,47.20
2023-05-18T23:38:11.645Z,47.22
2023-05-18T23:39:10.621Z,47.15
2023-05-18T23:41:36.133Z,47.35
2023-05-18T23:42:36.067Z,47.33
2023-05-18T23:43:36.298Z,47.41
2023-05-18T23:44:36.137Z,47.33
2023-05-18T23:45:36.299Z,47.41
2023-05-18T23:46:37.127Z,47.25
2023-05-18T23:47:37.218Z,47.19
2023-05-18T23:48:36.138Z,47.22
2023-05-18T23:49:36.332Z,47.19
2023-05-18T23:50:36.142Z,47.21
2023-05-18T23:51:36.366Z,47.17
2023-05-18T23:52:36.336Z,47.18
2023-05-18T23:53:37.171Z,47.21
2023-05-18T23:54:37.301Z,47.17
